Helmi — SA7925 — position and weather

sailwx.info

Track history (hours):
 
Tides and Currents Weather Stations Pressure Air Temp Water Temp Dewpoint Dewpoint Depression Visibility Wind Speed Wind Dir Waves Ship Positions

Helmi

Last reported at 2017-Sep-20 17:46 UTC. Time now 2017-Sep-21 21:09 UTC.
Position N 37°56' W 010°21'.

Length 12 m.

Type: Pleasure craft. MMSI: 265614710.

Date/timePositionNaut miles runAvg speedWind from/ knotsBaromVisibWave heightAir tempDewpointWater temp
2017-Sep-20 17:46N 37°56' W 010°21'2 5.5
2017-Sep-20 17:25N 37°58' W 010°19'2 5.4
2017-Sep-20 17:00N 37°60' W 010°17'5 5.2
2017-Sep-20 16:07N 38°03' W 010°13'2 5.4
2017-Sep-20 15:41N 38°05' W 010°11'16 5.6
2017-Sep-20 12:46N 38°16' W 009°57'2 6.1
2017-Sep-20 12:26N 38°18' W 009°55'3 6.3
2017-Sep-20 11:57N 38°20' W 009°52'3 6.7
2017-Sep-20 11:27N 38°22' W 009°49'5 6.8
2017-Sep-20 10:46N 38°25' W 009°44'3 6.8
2017-Sep-20 10:15N 38°28' W 009°42'3 6.4
2017-Sep-20 09:51N 38°30' W 009°39'2 6.4
2017-Sep-20 09:29N 38°31' W 009°37'3 6.5
2017-Sep-20 09:00N 38°33' W 009°34'4 7.0
2017-Sep-20 08:29N 38°36' W 009°31'3 6.1
2017-Sep-20 08:00N 38°38' W 009°28'3 6.0
2017-Sep-20 07:30N 38°40' W 009°26'1 2.2
2017-Sep-20 07:00N 38°41' W 009°25'0 0.0
2017-Sep-19 19:18N 38°41' W 009°25'0 0.0
2017-Sep-19 18:57N 38°41' W 009°25'0 0.0
2017-Sep-19 18:30N 38°41' W 009°25'0 0.0
2017-Sep-19 17:57N 38°41' W 009°25'0 0.0
2017-Sep-17 16:29N 38°41' W 009°25'0 0.5
2017-Sep-17 15:59N 38°42' W 009°25'0 0.0
2017-Sep-17 15:26N 38°42' W 009°25'0 0.0
2017-Sep-17 14:38N 38°42' W 009°25'0 0.0
2017-Sep-17 14:14N 38°42' W 009°25'1 2.8
2017-Sep-17 14:00N 38°41' W 009°25'3 5.9
2017-Sep-17 13:30N 38°42' W 009°29'3 6.8
2017-Sep-17 13:00N 38°45' W 009°31'4 7.2
2017-Sep-17 12:30N 38°49' W 009°31'4 7.1
2017-Sep-17 12:00N 38°52' W 009°30'3 7.0
2017-Sep-17 11:30N 38°55' W 009°29'4 7.0
2017-Sep-17 11:00N 38°59' W 009°28'3 6.7
2017-Sep-17 10:30N 39°02' W 009°27'3 6.5
2017-Sep-17 10:00N 39°05' W 009°27'3 6.8
2017-Sep-17 09:30N 39°09' W 009°26'3 7.0
2017-Sep-17 09:00N 39°12' W 009°25'  
Track history (hours):
 
Tides and Currents Weather Stations Pressure Air Temp Water Temp Dewpoint Dewpoint Depression Visibility Wind Speed Wind Dir Waves Ship Positions

Helmi

Last reported at 2017-Sep-20 17:46 UTC. Time now 2017-Sep-21 21:09 UTC.
Position N 37°56' W 010°21'.

Length 12 m.

Type: Pleasure craft. MMSI: 265614710.

Date/timePositionNaut miles runAvg speedWind from/ knotsBaromVisibWave heightAir tempDewpointWater temp
2017-Sep-20 17:46N 37°56' W 010°21'2 5.5
2017-Sep-20 17:25N 37°58' W 010°19'2 5.4
2017-Sep-20 17:00N 37°60' W 010°17'5 5.2
2017-Sep-20 16:07N 38°03' W 010°13'2 5.4
2017-Sep-20 15:41N 38°05' W 010°11'16 5.6
2017-Sep-20 12:46N 38°16' W 009°57'2 6.1
2017-Sep-20 12:26N 38°18' W 009°55'3 6.3
2017-Sep-20 11:57N 38°20' W 009°52'3 6.7
2017-Sep-20 11:27N 38°22' W 009°49'5 6.8
2017-Sep-20 10:46N 38°25' W 009°44'3 6.8
2017-Sep-20 10:15N 38°28' W 009°42'3 6.4
2017-Sep-20 09:51N 38°30' W 009°39'2 6.4
2017-Sep-20 09:29N 38°31' W 009°37'3 6.5
2017-Sep-20 09:00N 38°33' W 009°34'4 7.0
2017-Sep-20 08:29N 38°36' W 009°31'3 6.1
2017-Sep-20 08:00N 38°38' W 009°28'3 6.0
2017-Sep-20 07:30N 38°40' W 009°26'1 2.2
2017-Sep-20 07:00N 38°41' W 009°25'0 0.0
2017-Sep-19 19:18N 38°41' W 009°25'0 0.0
2017-Sep-19 18:57N 38°41' W 009°25'0 0.0
2017-Sep-19 18:30N 38°41' W 009°25'0 0.0
2017-Sep-19 17:57N 38°41' W 009°25'0 0.0
2017-Sep-17 16:29N 38°41' W 009°25'0 0.5
2017-Sep-17 15:59N 38°42' W 009°25'0 0.0
2017-Sep-17 15:26N 38°42' W 009°25'0 0.0
2017-Sep-17 14:38N 38°42' W 009°25'0 0.0
2017-Sep-17 14:14N 38°42' W 009°25'1 2.8
2017-Sep-17 14:00N 38°41' W 009°25'3 5.9
2017-Sep-17 13:30N 38°42' W 009°29'3 6.8
2017-Sep-17 13:00N 38°45' W 009°31'4 7.2
2017-Sep-17 12:30N 38°49' W 009°31'4 7.1
2017-Sep-17 12:00N 38°52' W 009°30'3 7.0
2017-Sep-17 11:30N 38°55' W 009°29'4 7.0
2017-Sep-17 11:00N 38°59' W 009°28'3 6.7
2017-Sep-17 10:30N 39°02' W 009°27'3 6.5
2017-Sep-17 10:00N 39°05' W 009°27'3 6.8
2017-Sep-17 09:30N 39°09' W 009°26'3 7.0
2017-Sep-17 09:00N 39°12' W 009°25'  

Dump ship's entire track history